sensor_id;sensor_type;location;lat;lon;timestamp;P1;durP1;ratioP1;P2;durP2;ratioP2
67804;SDS011;54603;45.638;11.714;2023-03-01T00:01:22;8.90;;;5.10;;
67804;SDS011;54603;45.638;11.714;2023-03-01T00:03:49;7.60;;;4.90;;
67804;SDS011;54603;45.638;11.714;2023-03-01T00:06:16;5.90;;;4.90;;
67804;SDS011;54603;45.638;11.714;2023-03-01T00:08:41;8.50;;;4.90;;
67804;SDS011;54603;45.638;11.714;2023-03-01T00:13:47;6.50;;;5.00;;
67804;SDS011;54603;45.638;11.714;2023-03-01T00:16:18;13.10;;;4.80;;
67804;SDS011;54603;45.638;11.714;2023-03-01T00:21:11;6.90;;;4.40;;
67804;SDS011;54603;45.638;11.714;2023-03-01T00:23:37;6.90;;;4.50;;
67804;SDS011;54603;45.638;11.714;2023-03-01T00:26:05;6.90;;;5.00;;
67804;SDS011;54603;45.638;11.714;2023-03-01T00:28:32;6.10;;;4.70;;
67804;SDS011;54603;45.638;11.714;2023-03-01T00:31:04;5.60;;;4.50;;
67804;SDS011;54603;45.638;11.714;2023-03-01T00:33:40;6.50;;;4.50;;
67804;SDS011;54603;45.638;11.714;2023-03-01T00:36:06;6.60;;;4.50;;
67804;SDS011;54603;45.638;11.714;2023-03-01T00:38:36;7.00;;;4.90;;
67804;SDS011;54603;45.638;11.714;2023-03-01T00:41:04;5.80;;;4.70;;
67804;SDS011;54603;45.638;11.714;2023-03-01T00:43:30;6.50;;;4.60;;
67804;SDS011;54603;45.638;11.714;2023-03-01T00:46:05;7.10;;;4.60;;
67804;SDS011;54603;45.638;11.714;2023-03-01T00:48:32;6.60;;;5.00;;
67804;SDS011;54603;45.638;11.714;2023-03-01T00:51:05;6.90;;;4.10;;
67804;SDS011;54603;45.638;11.714;2023-03-01T00:53:31;5.90;;;4.30;;
67804;SDS011;54603;45.638;11.714;2023-03-01T00:55:57;5.60;;;3.90;;
67804;SDS011;54603;45.638;11.714;2023-03-01T00:58:23;6.00;;;4.20;;
67804;SDS011;54603;45.638;11.714;2023-03-01T01:00:49;6.10;;;4.50;;
67804;SDS011;54603;45.638;11.714;2023-03-01T01:03:15;4.90;;;4.30;;
67804;SDS011;54603;45.638;11.714;2023-03-01T01:05:40;5.20;;;4.40;;
67804;SDS011;54603;45.638;11.714;2023-03-01T01:08:06;4.90;;;4.20;;
67804;SDS011;54603;45.638;11.714;2023-03-01T01:10:33;6.70;;;4.30;;
67804;SDS011;54603;45.638;11.714;2023-03-01T01:12:59;5.20;;;4.20;;
67804;SDS011;54603;45.638;11.714;2023-03-01T01:15:25;6.10;;;4.40;;
67804;SDS011;54603;45.638;11.714;2023-03-01T01:17:51;5.40;;;4.00;;
67804;SDS011;54603;45.638;11.714;2023-03-01T01:20:16;5.50;;;4.50;;
67804;SDS011;54603;45.638;11.714;2023-03-01T01:22:42;6.50;;;4.30;;
67804;SDS011;54603;45.638;11.714;2023-03-01T01:25:08;5.80;;;4.40;;
67804;SDS011;54603;45.638;11.714;2023-03-01T01:27:34;6.50;;;4.30;;
67804;SDS011;54603;45.638;11.714;2023-03-01T01:29:59;5.80;;;4.30;;
67804;SDS011;54603;45.638;11.714;2023-03-01T01:32:25;5.60;;;4.20;;
67804;SDS011;54603;45.638;11.714;2023-03-01T01:34:50;5.50;;;4.10;;
67804;SDS011;54603;45.638;11.714;2023-03-01T01:37:16;6.70;;;4.30;;
67804;SDS011;54603;45.638;11.714;2023-03-01T01:39:42;7.10;;;4.20;;
67804;SDS011;54603;45.638;11.714;2023-03-01T01:42:17;5.10;;;4.00;;
67804;SDS011;54603;45.638;11.714;2023-03-01T01:44:46;5.30;;;4.40;;
67804;SDS011;54603;45.638;11.714;2023-03-01T01:47:16;4.90;;;4.20;;
67804;SDS011;54603;45.638;11.714;2023-03-01T01:54:50;6.00;;;4.00;;
67804;SDS011;54603;45.638;11.714;2023-03-01T01:57:32;5.80;;;4.30;;
67804;SDS011;54603;45.638;11.714;2023-03-01T02:02:36;6.70;;;4.10;;
67804;SDS011;54603;45.638;11.714;2023-03-01T02:05:18;5.60;;;4.00;;
67804;SDS011;54603;45.638;11.714;2023-03-01T02:08:06;5.60;;;4.10;;
67804;SDS011;54603;45.638;11.714;2023-03-01T02:10:32;4.70;;;4.20;;
67804;SDS011;54603;45.638;11.714;2023-03-01T02:12:58;4.90;;;4.30;;
67804;SDS011;54603;45.638;11.714;2023-03-01T02:15:24;3.90;;;3.50;;
67804;SDS011;54603;45.638;11.714;2023-03-01T02:17:52;8.20;;;4.50;;
67804;SDS011;54603;45.638;11.714;2023-03-01T02:22:44;5.10;;;4.30;;
67804;SDS011;54603;45.638;11.714;2023-03-01T02:27:54;6.20;;;4.10;;
67804;SDS011;54603;45.638;11.714;2023-03-01T02:30:23;5.30;;;4.10;;
67804;SDS011;54603;45.638;11.714;2023-03-01T02:32:50;5.60;;;3.90;;
67804;SDS011;54603;45.638;11.714;2023-03-01T02:35:18;4.20;;;3.80;;
67804;SDS011;54603;45.638;11.714;2023-03-01T02:37:44;5.40;;;4.20;;
67804;SDS011;54603;45.638;11.714;2023-03-01T02:40:11;6.00;;;4.50;;
67804;SDS011;54603;45.638;11.714;2023-03-01T02:43:02;5.30;;;4.00;;
67804;SDS011;54603;45.638;11.714;2023-03-01T02:45:27;4.80;;;4.20;;
67804;SDS011;54603;45.638;11.714;2023-03-01T02:47:53;4.50;;;4.00;;
67804;SDS011;54603;45.638;11.714;2023-03-01T02:55:25;7.60;;;4.30;;
67804;SDS011;54603;45.638;11.714;2023-03-01T02:57:50;4.80;;;4.10;;
67804;SDS011;54603;45.638;11.714;2023-03-01T03:00:38;5.80;;;4.10;;
67804;SDS011;54603;45.638;11.714;2023-03-01T03:03:10;5.40;;;4.00;;
67804;SDS011;54603;45.638;11.714;2023-03-01T03:05:39;4.10;;;3.60;;
67804;SDS011;54603;45.638;11.714;2023-03-01T03:08:04;5.20;;;4.20;;
67804;SDS011;54603;45.638;11.714;2023-03-01T03:10:31;4.70;;;3.70;;
67804;SDS011;54603;45.638;11.714;2023-03-01T03:13:00;5.80;;;4.60;;
67804;SDS011;54603;45.638;11.714;2023-03-01T03:15:27;6.50;;;4.30;;
67804;SDS011;54603;45.638;11.714;2023-03-01T03:17:54;5.10;;;3.80;;
67804;SDS011;54603;45.638;11.714;2023-03-01T03:20:20;5.10;;;4.00;;
67804;SDS011;54603;45.638;11.714;2023-03-01T03:22:48;5.10;;;4.20;;
67804;SDS011;54603;45.638;11.714;2023-03-01T03:25:19;6.00;;;3.90;;
67804;SDS011;54603;45.638;11.714;2023-03-01T03:27:46;5.20;;;4.20;;
67804;SDS011;54603;45.638;11.714;2023-03-01T03:30:15;4.60;;;4.10;;
67804;SDS011;54603;45.638;11.714;2023-03-01T03:32:44;4.90;;;3.90;;
67804;SDS011;54603;45.638;11.714;2023-03-01T03:35:18;6.40;;;4.20;;
67804;SDS011;54603;45.638;11.714;2023-03-01T03:37:45;5.60;;;4.20;;
67804;SDS011;54603;45.638;11.714;2023-03-01T03:40:38;6.90;;;4.30;;
67804;SDS011;54603;45.638;11.714;2023-03-01T03:43:08;4.80;;;4.10;;
67804;SDS011;54603;45.638;11.714;2023-03-01T03:45:35;5.30;;;4.30;;
67804;SDS011;54603;45.638;11.714;2023-03-01T03:48:01;4.70;;;3.70;;
67804;SDS011;54603;45.638;11.714;2023-03-01T03:50:28;4.40;;;3.80;;
67804;SDS011;54603;45.638;11.714;2023-03-01T03:52:54;4.50;;;3.90;;
67804;SDS011;54603;45.638;11.714;2023-03-01T03:55:20;5.30;;;3.80;;
67804;SDS011;54603;45.638;11.714;2023-03-01T03:57:46;5.40;;;3.90;;
67804;SDS011;54603;45.638;11.714;2023-03-01T04:00:17;5.20;;;4.10;;
67804;SDS011;54603;45.638;11.714;2023-03-01T04:02:44;5.00;;;4.00;;
67804;SDS011;54603;45.638;11.714;2023-03-01T04:05:11;5.20;;;3.80;;
67804;SDS011;54603;45.638;11.714;2023-03-01T04:07:39;4.70;;;3.90;;
67804;SDS011;54603;45.638;11.714;2023-03-01T04:10:06;5.70;;;4.00;;
67804;SDS011;54603;45.638;11.714;2023-03-01T04:12:34;6.90;;;4.10;;
67804;SDS011;54603;45.638;11.714;2023-03-01T04:15:00;4.90;;;3.70;;
67804;SDS011;54603;45.638;11.714;2023-03-01T04:17:26;5.10;;;3.90;;
67804;SDS011;54603;45.638;11.714;2023-03-01T04:19:52;5.10;;;3.90;;
67804;SDS011;54603;45.638;11.714;2023-03-01T04:22:18;4.70;;;3.70;;
67804;SDS011;54603;45.638;11.714;2023-03-01T04:24:44;4.90;;;4.10;;
67804;SDS011;54603;45.638;11.714;2023-03-01T04:27:10;6.20;;;4.00;;
67804;SDS011;54603;45.638;11.714;2023-03-01T04:29:36;6.00;;;3.90;;
67804;SDS011;54603;45.638;11.714;2023-03-01T04:32:02;5.10;;;4.20;;
67804;SDS011;54603;45.638;11.714;2023-03-01T04:34:28;5.40;;;4.20;;
67804;SDS011;54603;45.638;11.714;2023-03-01T04:36:54;5.10;;;3.80;;
67804;SDS011;54603;45.638;11.714;2023-03-01T04:39:20;5.30;;;3.90;;
67804;SDS011;54603;45.638;11.714;2023-03-01T04:41:46;5.40;;;4.10;;
67804;SDS011;54603;45.638;11.714;2023-03-01T04:44:12;5.60;;;3.90;;
67804;SDS011;54603;45.638;11.714;2023-03-01T04:46:38;4.70;;;3.90;;
67804;SDS011;54603;45.638;11.714;2023-03-01T04:49:04;5.00;;;4.00;;
67804;SDS011;54603;45.638;11.714;2023-03-01T04:51:30;5.70;;;4.00;;
67804;SDS011;54603;45.638;11.714;2023-03-01T04:53:57;4.40;;;3.90;;
67804;SDS011;54603;45.638;11.714;2023-03-01T04:56:23;4.20;;;3.70;;
67804;SDS011;54603;45.638;11.714;2023-03-01T04:58:48;4.20;;;3.70;;
67804;SDS011;54603;45.638;11.714;2023-03-01T05:01:15;5.00;;;4.10;;
67804;SDS011;54603;45.638;11.714;2023-03-01T05:03:49;5.70;;;4.00;;
67804;SDS011;54603;45.638;11.714;2023-03-01T05:06:16;4.30;;;3.60;;
67804;SDS011;54603;45.638;11.714;2023-03-01T05:08:43;5.00;;;3.80;;
67804;SDS011;54603;45.638;11.714;2023-03-01T05:11:09;4.30;;;3.60;;
67804;SDS011;54603;45.638;11.714;2023-03-01T05:13:36;4.50;;;3.80;;
67804;SDS011;54603;45.638;11.714;2023-03-01T05:16:02;4.10;;;3.40;;
67804;SDS011;54603;45.638;11.714;2023-03-01T05:18:29;5.40;;;3.80;;
67804;SDS011;54603;45.638;11.714;2023-03-01T05:21:00;4.20;;;3.60;;
67804;SDS011;54603;45.638;11.714;2023-03-01T05:23:34;4.00;;;3.50;;
67804;SDS011;54603;45.638;11.714;2023-03-01T05:26:00;4.70;;;3.90;;
67804;SDS011;54603;45.638;11.714;2023-03-01T05:28:27;5.20;;;3.90;;
67804;SDS011;54603;45.638;11.714;2023-03-01T05:30:54;4.80;;;3.80;;
67804;SDS011;54603;45.638;11.714;2023-03-01T05:33:19;4.20;;;3.70;;
67804;SDS011;54603;45.638;11.714;2023-03-01T05:35:47;4.90;;;4.20;;
67804;SDS011;54603;45.638;11.714;2023-03-01T05:38:14;4.30;;;3.90;;
67804;SDS011;54603;45.638;11.714;2023-03-01T05:40:40;6.00;;;3.80;;
67804;SDS011;54603;45.638;11.714;2023-03-01T05:43:10;4.80;;;4.00;;
67804;SDS011;54603;45.638;11.714;2023-03-01T05:45:39;4.70;;;4.00;;
67804;SDS011;54603;45.638;11.714;2023-03-01T05:48:05;4.60;;;3.80;;
67804;SDS011;54603;45.638;11.714;2023-03-01T05:50:33;5.10;;;3.80;;
67804;SDS011;54603;45.638;11.714;2023-03-01T05:53:01;4.90;;;3.90;;
67804;SDS011;54603;45.638;11.714;2023-03-01T05:55:33;4.60;;;3.70;;
67804;SDS011;54603;45.638;11.714;2023-03-01T05:58:00;4.20;;;3.80;;
67804;SDS011;54603;45.638;11.714;2023-03-01T06:00:27;5.60;;;3.60;;
67804;SDS011;54603;45.638;11.714;2023-03-01T06:02:53;4.50;;;3.80;;
67804;SDS011;54603;45.638;11.714;2023-03-01T06:05:19;5.20;;;3.90;;
67804;SDS011;54603;45.638;11.714;2023-03-01T06:07:45;5.20;;;4.10;;
67804;SDS011;54603;45.638;11.714;2023-03-01T06:10:11;6.10;;;3.90;;
67804;SDS011;54603;45.638;11.714;2023-03-01T06:12:38;5.70;;;4.00;;
67804;SDS011;54603;45.638;11.714;2023-03-01T06:15:05;4.70;;;3.90;;
67804;SDS011;54603;45.638;11.714;2023-03-01T06:17:35;5.10;;;3.70;;
67804;SDS011;54603;45.638;11.714;2023-03-01T06:20:07;3.90;;;3.20;;
67804;SDS011;54603;45.638;11.714;2023-03-01T06:22:35;4.30;;;3.70;;
67804;SDS011;54603;45.638;11.714;2023-03-01T06:25:01;5.20;;;4.00;;
67804;SDS011;54603;45.638;11.714;2023-03-01T06:27:27;5.40;;;4.00;;
67804;SDS011;54603;45.638;11.714;2023-03-01T06:29:53;6.40;;;3.70;;
67804;SDS011;54603;45.638;11.714;2023-03-01T06:32:19;7.10;;;3.70;;
67804;SDS011;54603;45.638;11.714;2023-03-01T06:34:44;7.40;;;3.90;;
67804;SDS011;54603;45.638;11.714;2023-03-01T06:37:10;7.60;;;3.80;;
67804;SDS011;54603;45.638;11.714;2023-03-01T06:39:35;7.00;;;4.00;;
67804;SDS011;54603;45.638;11.714;2023-03-01T06:42:01;5.40;;;3.60;;
67804;SDS011;54603;45.638;11.714;2023-03-01T06:44:26;6.10;;;3.70;;
67804;SDS011;54603;45.638;11.714;2023-03-01T06:46:52;6.10;;;4.10;;
67804;SDS011;54603;45.638;11.714;2023-03-01T06:49:18;6.00;;;3.90;;
67804;SDS011;54603;45.638;11.714;2023-03-01T06:51:44;5.80;;;4.10;;
67804;SDS011;54603;45.638;11.714;2023-03-01T06:54:11;9.20;;;4.20;;
67804;SDS011;54603;45.638;11.714;2023-03-01T06:56:37;6.50;;;4.00;;
67804;SDS011;54603;45.638;11.714;2023-03-01T06:59:03;6.30;;;4.00;;
67804;SDS011;54603;45.638;11.714;2023-03-01T07:01:29;6.80;;;4.20;;
67804;SDS011;54603;45.638;11.714;2023-03-01T07:03:55;8.00;;;4.50;;
67804;SDS011;54603;45.638;11.714;2023-03-01T07:06:21;8.50;;;4.10;;
67804;SDS011;54603;45.638;11.714;2023-03-01T07:08:47;5.40;;;3.90;;
67804;SDS011;54603;45.638;11.714;2023-03-01T07:11:12;6.10;;;4.30;;
67804;SDS011;54603;45.638;11.714;2023-03-01T07:13:38;6.30;;;4.10;;
67804;SDS011;54603;45.638;11.714;2023-03-01T07:16:05;5.70;;;4.10;;
67804;SDS011;54603;45.638;11.714;2023-03-01T07:18:34;6.60;;;4.10;;
67804;SDS011;54603;45.638;11.714;2023-03-01T07:21:09;7.00;;;4.00;;
67804;SDS011;54603;45.638;11.714;2023-03-01T07:23:36;6.30;;;4.40;;
67804;SDS011;54603;45.638;11.714;2023-03-01T07:26:03;4.90;;;3.80;;
67804;SDS011;54603;45.638;11.714;2023-03-01T07:28:36;10.60;;;3.90;;
67804;SDS011;54603;45.638;11.714;2023-03-01T07:31:05;5.50;;;4.10;;
67804;SDS011;54603;45.638;11.714;2023-03-01T07:33:32;7.00;;;4.00;;
67804;SDS011;54603;45.638;11.714;2023-03-01T07:35:58;7.30;;;4.00;;
67804;SDS011;54603;45.638;11.714;2023-03-01T07:38:25;5.20;;;4.20;;
67804;SDS011;54603;45.638;11.714;2023-03-01T07:40:51;13.40;;;3.60;;
67804;SDS011;54603;45.638;11.714;2023-03-01T07:43:18;5.10;;;3.80;;
67804;SDS011;54603;45.638;11.714;2023-03-01T07:45:44;6.20;;;4.20;;
67804;SDS011;54603;45.638;11.714;2023-03-01T07:48:09;4.60;;;3.60;;
67804;SDS011;54603;45.638;11.714;2023-03-01T07:50:35;5.80;;;4.10;;
67804;SDS011;54603;45.638;11.714;2023-03-01T07:53:01;5.30;;;4.10;;
67804;SDS011;54603;45.638;11.714;2023-03-01T07:55:27;5.10;;;3.60;;
67804;SDS011;54603;45.638;11.714;2023-03-01T07:57:53;7.00;;;3.80;;
67804;SDS011;54603;45.638;11.714;2023-03-01T08:00:18;7.40;;;3.90;;
67804;SDS011;54603;45.638;11.714;2023-03-01T08:02:44;4.60;;;3.70;;
67804;SDS011;54603;45.638;11.714;2023-03-01T08:05:11;5.40;;;3.50;;
67804;SDS011;54603;45.638;11.714;2023-03-01T08:07:37;6.30;;;3.90;;
67804;SDS011;54603;45.638;11.714;2023-03-01T08:10:04;5.20;;;4.00;;
67804;SDS011;54603;45.638;11.714;2023-03-01T08:12:31;5.20;;;4.00;;
67804;SDS011;54603;45.638;11.714;2023-03-01T08:14:57;4.60;;;3.40;;
67804;SDS011;54603;45.638;11.714;2023-03-01T08:17:24;7.30;;;3.60;;
67804;SDS011;54603;45.638;11.714;2023-03-01T08:19:51;5.70;;;3.90;;
67804;SDS011;54603;45.638;11.714;2023-03-01T08:22:16;6.60;;;3.90;;
67804;SDS011;54603;45.638;11.714;2023-03-01T08:24:42;6.90;;;3.80;;
67804;SDS011;54603;45.638;11.714;2023-03-01T08:27:07;4.90;;;3.70;;
67804;SDS011;54603;45.638;11.714;2023-03-01T08:29:33;4.20;;;3.70;;
67804;SDS011;54603;45.638;11.714;2023-03-01T08:31:59;4.10;;;3.60;;
67804;SDS011;54603;45.638;11.714;2023-03-01T08:34:25;4.60;;;3.80;;
67804;SDS011;54603;45.638;11.714;2023-03-01T08:36:50;4.70;;;4.00;;
67804;SDS011;54603;45.638;11.714;2023-03-01T08:39:17;6.00;;;3.80;;
67804;SDS011;54603;45.638;11.714;2023-03-01T08:41:45;5.50;;;4.10;;
67804;SDS011;54603;45.638;11.714;2023-03-01T08:44:12;4.40;;;3.80;;
67804;SDS011;54603;45.638;11.714;2023-03-01T08:46:38;5.30;;;3.80;;
67804;SDS011;54603;45.638;11.714;2023-03-01T08:49:07;4.20;;;3.80;;
67804;SDS011;54603;45.638;11.714;2023-03-01T08:51:33;4.90;;;3.70;;
67804;SDS011;54603;45.638;11.714;2023-03-01T08:54:02;4.70;;;4.20;;
67804;SDS011;54603;45.638;11.714;2023-03-01T08:56:32;4.30;;;3.70;;
67804;SDS011;54603;45.638;11.714;2023-03-01T08:58:58;4.20;;;3.70;;
67804;SDS011;54603;45.638;11.714;2023-03-01T09:01:23;4.60;;;3.90;;
67804;SDS011;54603;45.638;11.714;2023-03-01T09:03:49;4.20;;;3.60;;
67804;SDS011;54603;45.638;11.714;2023-03-01T09:06:15;5.40;;;3.60;;
67804;SDS011;54603;45.638;11.714;2023-03-01T09:08:41;4.90;;;3.70;;
67804;SDS011;54603;45.638;11.714;2023-03-01T09:11:09;5.20;;;3.90;;
67804;SDS011;54603;45.638;11.714;2023-03-01T09:13:36;5.00;;;3.80;;
67804;SDS011;54603;45.638;11.714;2023-03-01T09:16:03;4.40;;;3.70;;
67804;SDS011;54603;45.638;11.714;2023-03-01T09:18:31;4.10;;;3.60;;
67804;SDS011;54603;45.638;11.714;2023-03-01T09:21:02;4.40;;;3.50;;
67804;SDS011;54603;45.638;11.714;2023-03-01T09:23:35;4.20;;;3.60;;
67804;SDS011;54603;45.638;11.714;2023-03-01T09:26:02;4.90;;;3.50;;
67804;SDS011;54603;45.638;11.714;2023-03-01T09:28:28;3.80;;;3.40;;
67804;SDS011;54603;45.638;11.714;2023-03-01T09:30:57;5.30;;;4.00;;
67804;SDS011;54603;45.638;11.714;2023-03-01T09:33:24;4.90;;;4.00;;
67804;SDS011;54603;45.638;11.714;2023-03-01T09:35:55;5.50;;;3.60;;
67804;SDS011;54603;45.638;11.714;2023-03-01T09:38:24;4.80;;;3.60;;
67804;SDS011;54603;45.638;11.714;2023-03-01T09:40:50;5.20;;;3.40;;
67804;SDS011;54603;45.638;11.714;2023-03-01T09:43:20;4.50;;;3.70;;
67804;SDS011;54603;45.638;11.714;2023-03-01T09:45:49;4.70;;;3.90;;
67804;SDS011;54603;45.638;11.714;2023-03-01T09:48:16;4.60;;;3.30;;
67804;SDS011;54603;45.638;11.714;2023-03-01T09:50:47;5.20;;;3.80;;
67804;SDS011;54603;45.638;11.714;2023-03-01T09:53:13;7.20;;;4.00;;
67804;SDS011;54603;45.638;11.714;2023-03-01T09:58:29;6.50;;;3.70;;
67804;SDS011;54603;45.638;11.714;2023-03-01T10:09:37;11.50;;;4.10;;
67804;SDS011;54603;45.638;11.714;2023-03-01T10:12:08;10.40;;;3.90;;
67804;SDS011;54603;45.638;11.714;2023-03-01T10:17:35;7.80;;;4.00;;
67804;SDS011;54603;45.638;11.714;2023-03-01T10:20:23;7.70;;;4.00;;
67804;SDS011;54603;45.638;11.714;2023-03-01T10:23:01;6.50;;;3.80;;
67804;SDS011;54603;45.638;11.714;2023-03-01T10:25:36;7.20;;;4.10;;
67804;SDS011;54603;45.638;11.714;2023-03-01T10:28:26;11.90;;;4.00;;
67804;SDS011;54603;45.638;11.714;2023-03-01T10:30:57;8.50;;;4.40;;
67804;SDS011;54603;45.638;11.714;2023-03-01T10:33:25;10.70;;;3.90;;
67804;SDS011;54603;45.638;11.714;2023-03-01T10:35:53;17.40;;;4.20;;
67804;SDS011;54603;45.638;11.714;2023-03-01T10:38:22;10.30;;;3.60;;
67804;SDS011;54603;45.638;11.714;2023-03-01T10:40:55;8.60;;;3.80;;
67804;SDS011;54603;45.638;11.714;2023-03-01T10:43:22;8.00;;;3.70;;
67804;SDS011;54603;45.638;11.714;2023-03-01T10:45:49;8.90;;;4.10;;
67804;SDS011;54603;45.638;11.714;2023-03-01T10:50:48;10.90;;;3.70;;
67804;SDS011;54603;45.638;11.714;2023-03-01T10:53:49;9.50;;;3.50;;
67804;SDS011;54603;45.638;11.714;2023-03-01T10:58:35;5.50;;;3.40;;
67804;SDS011;54603;45.638;11.714;2023-03-01T11:01:06;9.40;;;4.30;;
67804;SDS011;54603;45.638;11.714;2023-03-01T11:06:31;7.60;;;4.00;;
67804;SDS011;54603;45.638;11.714;2023-03-01T11:09:13;6.80;;;3.70;;
67804;SDS011;54603;45.638;11.714;2023-03-01T11:11:40;11.00;;;4.10;;
67804;SDS011;54603;45.638;11.714;2023-03-01T11:14:14;7.60;;;4.00;;
67804;SDS011;54603;45.638;11.714;2023-03-01T11:16:42;7.70;;;4.10;;
67804;SDS011;54603;45.638;11.714;2023-03-01T11:21:38;9.40;;;4.00;;
67804;SDS011;54603;45.638;11.714;2023-03-01T11:24:40;8.70;;;4.20;;
67804;SDS011;54603;45.638;11.714;2023-03-01T11:35:27;9.30;;;3.60;;
67804;SDS011;54603;45.638;11.714;2023-03-01T11:43:28;8.00;;;3.70;;
67804;SDS011;54603;45.638;11.714;2023-03-01T11:56:54;4.60;;;3.40;;
67804;SDS011;54603;45.638;11.714;2023-03-01T12:02:20;5.80;;;4.10;;
67804;SDS011;54603;45.638;11.714;2023-03-01T12:13:33;7.80;;;5.80;;
67804;SDS011;54603;45.638;11.714;2023-03-01T12:23:58;8.80;;;6.00;;
67804;SDS011;54603;45.638;11.714;2023-03-01T12:29:31;11.50;;;6.00;;
67804;SDS011;54603;45.638;11.714;2023-03-01T12:35:01;9.90;;;5.40;;
67804;SDS011;54603;45.638;11.714;2023-03-01T12:38:10;11.10;;;5.50;;
67804;SDS011;54603;45.638;11.714;2023-03-01T12:49:31;11.20;;;9.60;;
67804;SDS011;54603;45.638;11.714;2023-03-01T12:58:01;15.60;;;10.00;;
67804;SDS011;54603;45.638;11.714;2023-03-01T13:09:24;13.40;;;9.60;;
67804;SDS011;54603;45.638;11.714;2023-03-01T13:15:24;13.90;;;9.10;;
67804;SDS011;54603;45.638;11.714;2023-03-01T13:17:54;12.30;;;8.90;;
67804;SDS011;54603;45.638;11.714;2023-03-01T13:20:26;11.60;;;9.50;;
67804;SDS011;54603;45.638;11.714;2023-03-01T13:23:11;13.20;;;9.00;;
67804;SDS011;54603;45.638;11.714;2023-03-01T13:31:08;10.10;;;8.00;;
67804;SDS011;54603;45.638;11.714;2023-03-01T13:33:54;10.70;;;8.10;;
67804;SDS011;54603;45.638;11.714;2023-03-01T13:36:59;9.70;;;8.10;;
67804;SDS011;54603;45.638;11.714;2023-03-01T13:39:38;11.20;;;8.40;;
67804;SDS011;54603;45.638;11.714;2023-03-01T13:45:18;10.50;;;7.50;;
67804;SDS011;54603;45.638;11.714;2023-03-01T13:48:03;10.00;;;7.60;;
67804;SDS011;54603;45.638;11.714;2023-03-01T13:50:38;11.40;;;7.40;;
67804;SDS011;54603;45.638;11.714;2023-03-01T13:53:12;9.30;;;7.60;;
67804;SDS011;54603;45.638;11.714;2023-03-01T13:55:42;9.30;;;7.90;;
67804;SDS011;54603;45.638;11.714;2023-03-01T13:58:53;10.10;;;7.60;;
67804;SDS011;54603;45.638;11.714;2023-03-01T14:01:18;8.90;;;7.30;;
67804;SDS011;54603;45.638;11.714;2023-03-01T14:03:47;9.00;;;7.30;;
67804;SDS011;54603;45.638;11.714;2023-03-01T14:06:13;12.20;;;7.50;;
67804;SDS011;54603;45.638;11.714;2023-03-01T14:08:43;14.10;;;6.90;;
67804;SDS011;54603;45.638;11.714;2023-03-01T14:11:20;11.20;;;7.40;;
67804;SDS011;54603;45.638;11.714;2023-03-01T14:13:52;9.20;;;7.40;;
67804;SDS011;54603;45.638;11.714;2023-03-01T14:19:29;9.80;;;6.90;;
67804;SDS011;54603;45.638;11.714;2023-03-01T14:22:03;8.40;;;6.90;;
67804;SDS011;54603;45.638;11.714;2023-03-01T14:24:58;8.90;;;7.10;;
67804;SDS011;54603;45.638;11.714;2023-03-01T14:27:25;8.70;;;6.60;;
67804;SDS011;54603;45.638;11.714;2023-03-01T14:29:56;9.40;;;6.80;;
67804;SDS011;54603;45.638;11.714;2023-03-01T14:32:25;8.70;;;6.90;;
67804;SDS011;54603;45.638;11.714;2023-03-01T14:34:51;8.60;;;6.50;;
67804;SDS011;54603;45.638;11.714;2023-03-01T14:37:21;8.70;;;6.50;;
67804;SDS011;54603;45.638;11.714;2023-03-01T14:39:47;10.60;;;6.50;;
67804;SDS011;54603;45.638;11.714;2023-03-01T14:42:17;8.70;;;6.60;;
67804;SDS011;54603;45.638;11.714;2023-03-01T14:44:45;9.30;;;6.90;;
67804;SDS011;54603;45.638;11.714;2023-03-01T14:47:14;7.90;;;6.30;;
67804;SDS011;54603;45.638;11.714;2023-03-01T14:49:43;7.20;;;6.50;;
67804;SDS011;54603;45.638;11.714;2023-03-01T14:52:21;8.20;;;6.50;;
67804;SDS011;54603;45.638;11.714;2023-03-01T14:54:49;7.20;;;5.80;;
67804;SDS011;54603;45.638;11.714;2023-03-01T14:57:19;7.10;;;5.90;;
67804;SDS011;54603;45.638;11.714;2023-03-01T14:59:50;8.00;;;6.30;;
67804;SDS011;54603;45.638;11.714;2023-03-01T15:02:19;10.20;;;6.20;;
67804;SDS011;54603;45.638;11.714;2023-03-01T15:04:57;7.60;;;6.20;;
67804;SDS011;54603;45.638;11.714;2023-03-01T15:07:30;8.10;;;5.90;;
67804;SDS011;54603;45.638;11.714;2023-03-01T15:09:59;6.70;;;6.00;;
67804;SDS011;54603;45.638;11.714;2023-03-01T15:14:54;6.40;;;5.70;;
67804;SDS011;54603;45.638;11.714;2023-03-01T15:20:00;9.30;;;5.50;;
67804;SDS011;54603;45.638;11.714;2023-03-01T15:22:26;7.60;;;5.90;;
67804;SDS011;54603;45.638;11.714;2023-03-01T15:24:53;7.80;;;5.40;;
67804;SDS011;54603;45.638;11.714;2023-03-01T15:27:20;7.80;;;5.70;;
67804;SDS011;54603;45.638;11.714;2023-03-01T15:29:58;6.50;;;5.50;;
67804;SDS011;54603;45.638;11.714;2023-03-01T15:34:57;6.20;;;5.60;;
67804;SDS011;54603;45.638;11.714;2023-03-01T15:37:35;8.90;;;5.60;;
67804;SDS011;54603;45.638;11.714;2023-03-01T15:40:28;6.60;;;5.40;;
67804;SDS011;54603;45.638;11.714;2023-03-01T15:42:59;7.30;;;5.40;;
67804;SDS011;54603;45.638;11.714;2023-03-01T15:45:27;9.10;;;5.90;;
67804;SDS011;54603;45.638;11.714;2023-03-01T15:52:53;7.20;;;5.30;;
67804;SDS011;54603;45.638;11.714;2023-03-01T15:55:20;9.60;;;5.90;;
67804;SDS011;54603;45.638;11.714;2023-03-01T15:57:48;7.40;;;5.70;;
67804;SDS011;54603;45.638;11.714;2023-03-01T16:00:14;7.90;;;5.80;;
67804;SDS011;54603;45.638;11.714;2023-03-01T16:02:43;7.20;;;5.60;;
67804;SDS011;54603;45.638;11.714;2023-03-01T16:05:21;7.00;;;5.40;;
67804;SDS011;54603;45.638;11.714;2023-03-01T16:07:49;10.30;;;5.60;;
67804;SDS011;54603;45.638;11.714;2023-03-01T16:10:15;7.90;;;5.80;;
67804;SDS011;54603;45.638;11.714;2023-03-01T16:12:41;7.70;;;6.00;;
67804;SDS011;54603;45.638;11.714;2023-03-01T16:15:17;7.10;;;5.50;;
67804;SDS011;54603;45.638;11.714;2023-03-01T16:17:45;7.00;;;5.60;;
67804;SDS011;54603;45.638;11.714;2023-03-01T16:20:10;8.20;;;5.60;;
67804;SDS011;54603;45.638;11.714;2023-03-01T16:22:36;7.80;;;5.60;;
67804;SDS011;54603;45.638;11.714;2023-03-01T16:25:02;7.30;;;5.40;;
67804;SDS011;54603;45.638;11.714;2023-03-01T16:27:28;6.40;;;5.20;;
67804;SDS011;54603;45.638;11.714;2023-03-01T16:29:54;8.60;;;5.20;;
67804;SDS011;54603;45.638;11.714;2023-03-01T16:32:19;8.60;;;5.60;;
67804;SDS011;54603;45.638;11.714;2023-03-01T16:34:45;7.60;;;5.10;;
67804;SDS011;54603;45.638;11.714;2023-03-01T16:37:14;7.80;;;5.40;;
67804;SDS011;54603;45.638;11.714;2023-03-01T16:39:40;7.20;;;5.30;;
67804;SDS011;54603;45.638;11.714;2023-03-01T16:42:06;7.00;;;5.40;;
67804;SDS011;54603;45.638;11.714;2023-03-01T16:44:31;5.50;;;4.80;;
67804;SDS011;54603;45.638;11.714;2023-03-01T16:46:57;7.00;;;5.10;;
67804;SDS011;54603;45.638;11.714;2023-03-01T16:49:23;7.40;;;5.10;;
67804;SDS011;54603;45.638;11.714;2023-03-01T16:51:49;8.00;;;5.30;;
67804;SDS011;54603;45.638;11.714;2023-03-01T16:54:15;6.60;;;5.10;;
67804;SDS011;54603;45.638;11.714;2023-03-01T16:56:40;6.50;;;4.70;;
67804;SDS011;54603;45.638;11.714;2023-03-01T16:59:06;5.60;;;4.80;;
67804;SDS011;54603;45.638;11.714;2023-03-01T17:01:32;7.10;;;4.90;;
67804;SDS011;54603;45.638;11.714;2023-03-01T17:04:03;8.30;;;4.70;;
67804;SDS011;54603;45.638;11.714;2023-03-01T17:06:28;9.00;;;5.40;;
67804;SDS011;54603;45.638;11.714;2023-03-01T17:08:54;14.80;;;5.20;;
67804;SDS011;54603;45.638;11.714;2023-03-01T17:11:20;13.60;;;5.30;;
67804;SDS011;54603;45.638;11.714;2023-03-01T17:13:46;9.20;;;5.70;;